Time;durP1;ratioP1;P1;durP2;ratioP2;P2;SDS_P1;SDS_P2;PMS_P1;PMS_P2;Temp;Humidity;BMP_temperature;BMP_pressure;BME280_temperature;BME280_humidity;BME280_pressure;Samples;Min_cycle;Max_cycle;Signal;HPM_P1;HPM_P2
2024/01/30 00:00:51;;;;;;;11.02;3.13;;;;;;;2.87;100.00;101622.72;5004933;28;20041;-64
2024/01/30 00:03:18;;;;;;;10.10;3.00;;;;;;;2.85;100.00;101638.56;5008974;28;20061;-64
2024/01/30 00:05:46;;;;;;;16.42;4.05;;;;;;;2.84;100.00;101639.66;5008964;28;20046;-64
2024/01/30 00:08:13;;;;;;;10.23;2.97;;;;;;;2.84;100.00;101622.41;5009655;28;20057;-63
2024/01/30 00:10:41;;;;;;;14.35;4.18;;;;;;;2.84;100.00;101623.25;5009302;28;20048;-63
2024/01/30 00:13:08;;;;;;;12.23;3.00;;;;;;;2.83;100.00;101629.78;5009442;28;20422;-63
2024/01/30 00:15:36;;;;;;;7.38;2.80;;;;;;;2.83;100.00;101629.00;5008856;28;20495;-64
2024/01/30 00:18:03;;;;;;;14.23;3.13;;;;;;;2.81;100.00;101639.38;5009498;28;20064;-64
2024/01/30 00:20:31;;;;;;;18.15;3.60;;;;;;;2.79;100.00;101636.09;5008788;28;20050;-62
2024/01/30 00:22:58;;;;;;;20.42;4.03;;;;;;;2.76;100.00;101653.84;5009557;28;20068;-63
2024/01/30 00:25:25;;;;;;;11.38;3.40;;;;;;;2.74;100.00;101650.59;5008647;28;20606;-63
2024/01/30 00:27:53;;;;;;;15.18;3.72;;;;;;;2.75;100.00;101648.69;5009044;28;20045;-63
2024/01/30 00:30:21;;;;;;;13.27;3.35;;;;;;;2.75;100.00;101646.78;5008832;28;20459;-63
2024/01/30 00:32:48;;;;;;;9.88;2.88;;;;;;;2.74;100.00;101647.84;5008948;28;20061;-64
2024/01/30 00:35:15;;;;;;;15.25;3.05;;;;;;;2.73;100.00;101645.38;5008559;28;20046;-64
2024/01/30 00:37:43;;;;;;;13.02;3.45;;;;;;;2.72;100.00;101650.03;5007479;28;20508;-64
2024/01/30 00:40:15;;;;;;;12.32;3.78;;;;;;;2.69;100.00;101650.56;5006164;28;20054;-64
2024/01/30 00:42:44;;;;;;;11.90;2.95;;;;;;;2.69;100.00;101653.31;5000967;28;20054;-64
2024/01/30 00:45:13;;;;;;;21.20;2.80;;;;;;;2.69;100.00;101657.94;5008465;28;20041;-64
2024/01/30 00:47:41;;;;;;;9.02;2.78;;;;;;;2.66;100.00;101662.06;4989882;28;20044;-63
2024/01/30 00:50:09;;;;;;;14.98;2.83;;;;;;;2.66;100.00;101656.59;4995246;28;20049;-64
2024/01/30 00:52:38;;;;;;;11.23;3.10;;;;;;;2.65;100.00;101657.66;5008118;28;20046;-64
2024/01/30 00:55:07;;;;;;;6.93;2.55;;;;;;;2.63;100.00;101657.13;5004720;28;20073;-63
2024/01/30 00:57:35;;;;;;;11.75;2.75;;;;;;;2.61;100.00;101662.03;5007774;28;20050;-64
2024/01/30 01:00:06;;;;;;;7.80;2.92;;;;;;;2.62;100.00;101662.88;5008151;28;20630;-64
2024/01/30 01:02:34;;;;;;;11.55;3.75;;;;;;;2.61;100.00;101672.97;5007434;28;20065;-64
2024/01/30 01:05:03;;;;;;;13.13;3.70;;;;;;;2.59;100.00;101675.16;5007984;28;20046;-63
2024/01/30 01:07:30;;;;;;;12.30;2.72;;;;;;;2.56;100.00;101664.78;5007486;28;20891;-64
2024/01/30 01:09:58;;;;;;;8.52;3.15;;;;;;;2.53;100.00;101669.94;5007390;28;20053;-64
2024/01/30 01:12:25;;;;;;;10.07;2.42;;;;;;;2.52;100.00;101674.59;5007952;28;20041;-64
2024/01/30 01:14:53;;;;;;;14.43;2.47;;;;;;;2.51;100.00;101675.69;5007477;28;20054;-63
2024/01/30 01:17:20;;;;;;;19.85;2.95;;;;;;;2.49;100.00;101675.13;5006947;28;20050;-64
2024/01/30 01:19:48;;;;;;;12.40;3.10;;;;;;;2.50;100.00;101675.94;5007842;28;20053;-63
2024/01/30 01:22:17;;;;;;;10.32;2.28;;;;;;;2.48;100.00;101681.69;5007940;28;20416;-64
2024/01/30 01:24:44;;;;;;;7.43;2.67;;;;;;;2.48;100.00;101678.97;5008053;28;20045;-63
2024/01/30 01:27:12;;;;;;;11.07;2.53;;;;;;;2.47;100.00;101689.06;5007875;28;20053;-64
2024/01/30 01:29:39;;;;;;;15.68;2.58;;;;;;;2.47;100.00;101699.16;5008009;28;20057;-63
2024/01/30 01:32:07;;;;;;;11.23;2.53;;;;;;;2.46;100.00;101687.41;4989924;28;20125;-64
2024/01/30 01:34:34;;;;;;;7.75;2.42;;;;;;;2.45;100.00;101698.63;5007496;28;20064;-63
2024/01/30 01:37:01;;;;;;;8.38;2.50;;;;;;;2.44;100.00;101700.53;5007342;28;20052;-64
2024/01/30 01:39:29;;;;;;;9.68;2.70;;;;;;;2.42;100.00;101697.25;4973749;28;20050;-64
2024/01/30 01:41:56;;;;;;;8.48;2.85;;;;;;;2.42;100.00;101702.72;5006822;28;20053;-64
2024/01/30 01:44:24;;;;;;;11.45;2.60;;;;;;;2.41;100.00;101700.22;5007491;28;20050;-63
2024/01/30 01:46:53;;;;;;;13.32;2.53;;;;;;;2.39;100.00;101710.63;5007043;28;20511;-64
2024/01/30 01:49:28;;;;;;;10.82;2.20;;;;;;;2.38;100.00;101714.44;5007652;28;20054;-63
2024/01/30 01:51:58;;;;;;;8.65;2.17;;;;;;;2.38;100.00;101706.25;4995172;28;20054;-65
2024/01/30 01:54:28;;;;;;;14.70;2.17;;;;;;;2.36;100.00;101708.41;5007375;28;20069;-63
2024/01/30 01:56:56;;;;;;;10.52;3.95;;;;;;;2.36;100.00;101722.06;5007499;28;20411;-63
2024/01/30 01:59:24;;;;;;;11.35;2.97;;;;;;;2.36;100.00;101716.59;4989005;28;20061;-64
2024/01/30 02:01:53;;;;;;;11.15;2.80;;;;;;;2.34;100.00;101716.06;5007186;28;20061;-63
2024/01/30 02:04:20;;;;;;;15.95;4.20;;;;;;;2.31;100.00;101716.59;5007227;28;20614;-63
2024/01/30 02:06:48;;;;;;;13.95;4.90;;;;;;;2.30;100.00;101720.44;5001615;28;20046;-63
2024/01/30 02:09:16;;;;;;;11.43;2.85;;;;;;;2.30;100.00;101717.69;5002271;28;20396;-63
2024/01/30 02:11:43;;;;;;;16.50;2.95;;;;;;;2.27;100.00;101720.97;4989490;28;20539;-63
2024/01/30 02:14:10;;;;;;;13.55;2.95;;;;;;;2.25;100.00;101723.94;5006673;28;20034;-63
2024/01/30 02:16:38;;;;;;;5.15;2.10;;;;;;;2.26;100.00;101732.97;5007044;28;20064;-63
2024/01/30 02:19:07;;;;;;;10.32;2.35;;;;;;;2.24;100.00;101726.94;5003053;28;20072;-63
2024/01/30 02:21:35;;;;;;;14.80;3.65;;;;;;;2.23;100.00;101731.59;5007767;28;20049;-63
2024/01/30 02:24:03;;;;;;;11.00;1.90;;;;;;;2.21;100.00;101733.78;5007693;28;20056;-63
2024/01/30 02:26:31;;;;;;;8.43;2.33;;;;;;;2.21;100.00;101738.41;4988787;28;20053;-63
2024/01/30 02:28:58;;;;;;;8.52;2.90;;;;;;;2.20;100.00;101747.66;5006755;28;20054;-64
2024/01/30 02:31:26;;;;;;;6.93;2.13;;;;;;;2.17;100.00;101745.50;5006940;28;20061;-63
2024/01/30 02:33:53;;;;;;;10.15;2.78;;;;;;;2.16;100.00;101746.56;4992287;28;20404;-63
2024/01/30 02:36:21;;;;;;;15.35;2.97;;;;;;;2.13;100.00;101747.94;5007826;28;20060;-63
2024/01/30 02:38:49;;;;;;;8.32;2.78;;;;;;;2.12;100.00;101748.22;4994369;28;20046;-63
2024/01/30 02:41:16;;;;;;;9.52;2.47;;;;;;;2.09;100.00;101752.25;5007668;28;20058;-63
2024/01/30 02:43:44;;;;;;;10.60;2.90;;;;;;;2.09;100.00;101746.78;5007330;28;20045;-63
2024/01/30 02:46:11;;;;;;;9.00;2.25;;;;;;;2.08;100.00;101755.28;5007282;28;20046;-63
2024/01/30 02:48:39;;;;;;;10.20;3.78;;;;;;;2.06;100.00;101763.75;5006804;28;20053;-63
2024/01/30 02:51:06;;;;;;;10.25;1.98;;;;;;;2.05;100.00;101758.53;5006907;28;20054;-63
2024/01/30 02:53:34;;;;;;;15.93;2.75;;;;;;;2.04;100.00;101754.16;5006495;28;20686;-63
2024/01/30 02:56:03;;;;;;;8.05;1.85;;;;;;;2.03;100.00;101753.34;5006847;28;20053;-63
2024/01/30 02:58:30;;;;;;;7.80;2.20;;;;;;;2.00;100.00;101753.03;5006596;28;20057;-63
2024/01/30 03:00:57;;;;;;;8.45;2.25;;;;;;;1.98;100.00;101764.22;5059656;23;20051;-62
2024/01/30 03:03:25;;;;;;;10.27;2.38;;;;;;;1.98;100.00;101760.66;4976556;28;20100;-62
2024/01/30 03:05:54;;;;;;;12.00;3.20;;;;;;;1.97;100.00;101764.47;4986167;28;20133;-62
2024/01/30 03:08:21;;;;;;;18.70;2.30;;;;;;;1.96;100.00;101763.66;4986396;28;20399;-63
2024/01/30 03:10:49;;;;;;;10.02;3.80;;;;;;;1.96;100.00;101769.09;4950186;28;20413;-62
2024/01/30 03:13:16;;;;;;;9.68;2.20;;;;;;;1.96;100.00;101771.84;4981265;28;20518;-62
2024/01/30 03:15:44;;;;;;;11.52;2.83;;;;;;;1.94;100.00;101771.28;4986164;28;20046;-62
2024/01/30 03:18:11;;;;;;;11.20;2.08;;;;;;;1.96;100.00;101774.56;4986774;28;20119;-62
2024/01/30 03:20:39;;;;;;;7.30;1.90;;;;;;;1.97;100.00;101770.75;4979296;28;20077;-62
2024/01/30 03:23:06;;;;;;;6.85;2.35;;;;;;;1.97;100.00;101775.41;4978301;28;20062;-62
2024/01/30 03:25:34;;;;;;;9.02;1.75;;;;;;;1.94;100.00;101774.03;4967054;28;20061;-62
2024/01/30 03:28:01;;;;;;;4.38;1.42;;;;;;;1.93;100.00;101780.59;4972643;28;20051;-62
2024/01/30 03:30:29;;;;;;;11.40;1.92;;;;;;;1.93;100.00;101790.69;4977369;28;20078;-62
2024/01/30 03:32:56;;;;;;;4.55;1.80;;;;;;;1.91;100.00;101803.78;4964887;28;20054;-62
2024/01/30 03:35:23;;;;;;;4.88;1.92;;;;;;;1.90;100.00;101802.13;4971005;28;20516;-63
2024/01/30 03:37:51;;;;;;;8.77;2.00;;;;;;;1.89;100.00;101811.38;4974104;28;20051;-62
2024/01/30 03:40:18;;;;;;;8.50;3.33;;;;;;;1.89;100.00;101804.03;4978205;28;20778;-63
2024/01/30 03:42:46;;;;;;;5.82;1.98;;;;;;;1.87;100.00;101799.91;4970888;28;20054;-63
2024/01/30 03:45:13;;;;;;;7.47;2.30;;;;;;;1.85;100.00;101811.09;4967673;28;20078;-62
2024/01/30 03:47:43;;;;;;;3.67;1.98;;;;;;;1.84;100.00;101804.00;4958726;28;20059;-63
2024/01/30 03:50:11;;;;;;;12.88;3.05;;;;;;;1.84;100.00;101806.72;4972932;28;20046;-62
2024/01/30 03:52:39;;;;;;;8.63;1.90;;;;;;;1.84;100.00;101804.00;4978690;28;20038;-63
2024/01/30 03:55:06;;;;;;;12.10;1.63;;;;;;;1.82;100.00;101807.00;4963051;28;20062;-63
2024/01/30 03:57:34;;;;;;;7.47;2.67;;;;;;;1.81;100.00;101799.88;4972720;28;20051;-62
2024/01/30 04:00:03;;;;;;;5.35;1.60;;;;;;;1.81;100.00;101812.69;4961676;28;20054;-62
2024/01/30 04:02:30;;;;;;;11.82;2.30;;;;;;;1.80;100.00;101820.06;4967035;28;20044;-63
2024/01/30 04:04:58;;;;;;;9.35;2.15;;;;;;;1.81;100.00;101820.88;4968456;28;20054;-63
2024/01/30 04:07:26;;;;;;;6.15;1.83;;;;;;;1.77;100.00;101825.22;4970626;28;20054;-63
2024/01/30 04:09:54;;;;;;;6.72;2.03;;;;;;;1.76;100.00;101829.88;4975571;28;20062;-62
2024/01/30 04:12:27;;;;;;;7.63;1.85;;;;;;;1.76;100.00;101839.97;4967100;28;20404;-63
2024/01/30 04:14:54;;;;;;;8.77;1.30;;;;;;;1.73;100.00;101835.84;4983687;28;20054;-63
2024/01/30 04:17:22;;;;;;;8.60;1.95;;;;;;;1.71;100.00;101843.47;4983286;28;20401;-63
2024/01/30 04:19:49;;;;;;;7.85;1.23;;;;;;;1.70;100.00;101836.34;4978798;28;20049;-63
2024/01/30 04:22:17;;;;;;;9.35;1.75;;;;;;;1.70;100.00;101841.00;4968251;28;20046;-63
2024/01/30 04:24:44;;;;;;;8.63;1.55;;;;;;;1.67;100.00;101853.25;4975983;28;20051;-63
2024/01/30 04:27:12;;;;;;;6.85;1.83;;;;;;;1.68;100.00;101857.63;4972349;28;20527;-63
2024/01/30 04:29:40;;;;;;;8.00;1.58;;;;;;;1.68;100.00;101856.81;4969696;28;20042;-63
2024/01/30 04:32:07;;;;;;;6.97;1.65;;;;;;;1.66;100.00;101862.53;4983645;28;20047;-63
2024/01/30 04:34:36;;;;;;;6.30;1.45;;;;;;;1.65;100.00;101860.88;4966730;28;20055;-63
2024/01/30 04:37:04;;;;;;;7.18;2.08;;;;;;;1.65;100.00;101863.63;4959482;28;20531;-63
2024/01/30 04:39:33;;;;;;;6.60;1.60;;;;;;;1.66;100.00;101881.66;4974491;28;20073;-63
2024/01/30 04:42:00;;;;;;;4.90;1.77;;;;;;;1.67;100.00;101875.09;4961458;28;20042;-62
2024/01/30 04:44:28;;;;;;;3.45;1.60;;;;;;;1.63;100.00;101887.63;4964423;28;20051;-62
2024/01/30 04:46:58;;;;;;;2.92;1.25;;;;;;;1.59;100.00;101889.19;4964694;28;20054;-63
2024/01/30 04:49:26;;;;;;;4.95;1.33;;;;;;;1.55;100.00;101887.25;4975415;28;20058;-63
2024/01/30 04:51:53;;;;;;;6.05;1.23;;;;;;;1.50;100.00;101890.75;4981896;28;20050;-61
2024/01/30 04:54:21;;;;;;;7.63;2.08;;;;;;;1.50;100.00;101893.50;4982055;28;20058;-61
2024/01/30 04:56:48;;;;;;;6.63;1.73;;;;;;;1.49;100.00;101891.00;4969946;28;20051;-60
2024/01/30 04:59:16;;;;;;;10.60;2.17;;;;;;;1.48;100.00;101900.28;4967609;28;20043;-60
2024/01/30 05:01:43;;;;;;;15.00;3.35;;;;;;;1.47;100.00;101902.19;4974628;28;20580;-60
2024/01/30 05:04:11;;;;;;;7.20;1.60;;;;;;;1.44;100.00;101896.41;4974440;28;20043;-61
2024/01/30 05:06:43;;;;;;;;;;;;;;;1.40;100.00;101898.84;4976599;28;20467;-63
2024/01/30 05:09:11;;;;;;;8.93;1.75;;;;;;;1.36;100.00;101905.88;4967437;28;20300;-62
2024/01/30 05:11:39;;;;;;;3.22;1.23;;;;;;;1.32;100.00;101909.38;4958920;28;20058;-63
2024/01/30 05:14:08;;;;;;;6.72;1.20;;;;;;;1.24;100.00;101914.19;4979266;28;20492;-62
2024/01/30 05:16:35;;;;;;;4.85;1.38;;;;;;;1.19;100.00;101916.84;4966054;28;20054;-63
2024/01/30 05:19:03;;;;;;;20.60;2.35;;;;;;;1.15;100.00;101910.28;4963295;28;20535;-62
2024/01/30 05:21:30;;;;;;;3.63;1.50;;;;;;;1.12;100.00;101918.13;4963423;28;20051;-63
2024/01/30 05:23:58;;;;;;;11.63;2.22;;;;;;;1.10;100.00;101929.31;4984093;28;20038;-63
2024/01/30 05:26:26;;;;;;;8.00;2.28;;;;;;;1.09;100.00;101922.19;4986662;28;20054;-64
2024/01/30 05:28:53;;;;;;;2.22;1.20;;;;;;;1.09;100.00;101932.28;4971474;28;20050;-63
2024/01/30 05:31:21;;;;;;;9.52;1.83;;;;;;;1.05;100.00;101931.16;4961162;28;20039;-63
2024/01/30 05:33:49;;;;;;;2.80;1.95;;;;;;;1.04;100.00;101932.22;4986915;28;20050;-63
2024/01/30 05:36:16;;;;;;;6.07;2.05;;;;;;;1.02;100.00;101937.09;4966237;28;20054;-63
2024/01/30 05:38:44;;;;;;;10.50;1.90;;;;;;;1.03;100.00;101944.22;4975633;28;20047;-63
2024/01/30 05:41:11;;;;;;;8.00;1.65;;;;;;;1.03;100.00;101955.13;4969136;28;20053;-63
2024/01/30 05:43:39;;;;;;;5.43;1.40;;;;;;;1.04;100.00;101949.41;4971122;28;20760;-62
2024/01/30 05:46:06;;;;;;;7.07;1.85;;;;;;;1.03;100.00;101945.00;4965706;28;20054;-63
2024/01/30 05:48:35;;;;;;;3.88;1.80;;;;;;;1.03;100.00;101950.47;4970362;28;20052;-63
2024/01/30 05:51:03;;;;;;;11.20;2.15;;;;;;;1.01;100.00;101957.25;4972452;28;20055;-63
2024/01/30 05:53:31;;;;;;;3.97;1.95;;;;;;;0.99;100.00;101943.06;4975120;28;20055;-63
2024/01/30 05:56:01;;;;;;;10.93;2.25;;;;;;;0.97;100.00;101965.13;4971125;28;20050;-63
2024/01/30 05:58:29;;;;;;;10.60;2.85;;;;;;;0.97;100.00;101956.13;4959044;28;20539;-63
2024/01/30 06:00:57;;;;;;;11.23;5.25;;;;;;;0.96;100.00;101962.63;4966350;28;20063;-63
2024/01/30 06:03:25;;;;;;;4.82;1.77;;;;;;;0.94;100.00;101967.53;4985660;28;20704;-65
2024/01/30 06:05:53;;;;;;;7.30;1.98;;;;;;;0.91;100.00;101984.38;4971279;28;20046;-63
2024/01/30 06:08:20;;;;;;;7.20;1.50;;;;;;;0.88;100.00;101982.97;4978074;28;20054;-64
2024/01/30 06:10:47;;;;;;;7.93;2.33;;;;;;;0.86;100.00;101987.03;4967446;28;20412;-63
2024/01/30 06:13:15;;;;;;;4.45;1.98;;;;;;;0.83;100.00;101987.53;4978645;28;20055;-63
2024/01/30 06:15:42;;;;;;;8.93;2.90;;;;;;;0.83;100.00;101987.53;4986955;28;20506;-63
2024/01/30 06:18:10;;;;;;;7.47;2.35;;;;;;;0.81;100.00;102000.59;4969250;28;20077;-64
2024/01/30 06:20:40;;;;;;;7.40;2.00;;;;;;;0.79;100.00;101997.31;4984874;28;20034;-63
2024/01/30 06:23:07;;;;;;;11.85;2.20;;;;;;;0.77;100.00;102002.19;4987735;28;20479;-63
2024/01/30 06:25:35;;;;;;;6.65;2.53;;;;;;;0.75;100.00;101998.84;4961995;28;20049;-64
2024/01/30 06:28:14;;;;;;;8.70;2.65;;;;;;;0.71;100.00;102008.63;4969035;28;20053;-65
2024/01/30 06:30:41;;;;;;;6.40;2.53;;;;;;;0.68;100.00;101996.31;4965148;28;20043;-62
2024/01/30 06:33:12;;;;;;;6.45;2.60;;;;;;;0.67;100.00;102005.56;4962349;28;20051;-62
2024/01/30 06:35:41;;;;;;;5.78;2.22;;;;;;;0.65;100.00;102015.06;4963731;28;20078;-62
2024/01/30 06:38:11;;;;;;;5.53;1.70;;;;;;;0.65;100.00;102015.88;4962995;28;20058;-63
2024/01/30 06:40:39;;;;;;;7.20;2.72;;;;;;;0.65;100.00;102025.97;4968639;28;20046;-63
2024/01/30 06:43:07;;;;;;;11.32;3.58;;;;;;;0.65;100.00;102023.22;4970917;28;20050;-63
2024/01/30 06:45:35;;;;;;;8.73;3.42;;;;;;;0.65;100.00;102026.78;4976083;28;20137;-63
2024/01/30 06:48:03;;;;;;;11.55;2.63;;;;;;;0.64;100.00;102029.78;4949057;28;20059;-63
2024/01/30 06:50:30;;;;;;;8.95;2.20;;;;;;;0.64;100.00;102037.94;4975078;28;20419;-62
2024/01/30 06:52:58;;;;;;;15.27;5.28;;;;;;;0.61;100.00;102031.06;4961339;28;20058;-61
2024/01/30 06:55:25;;;;;;;9.77;3.05;;;;;;;0.59;100.00;102020.44;4965493;28;20054;-63
2024/01/30 06:57:53;;;;;;;11.85;3.38;;;;;;;0.60;100.00;102033.00;4964657;28;20124;-63
2024/01/30 07:00:21;;;;;;;7.75;3.72;;;;;;;0.59;100.00;102038.69;4965856;28;20054;-63
2024/01/30 07:02:48;;;;;;;7.63;2.83;;;;;;;0.59;100.00;102036.78;4943012;28;20058;-62
2024/01/30 07:05:17;;;;;;;11.23;3.15;;;;;;;0.61;100.00;102045.53;4959795;28;20039;-63
2024/01/30 07:07:44;;;;;;;10.18;2.85;;;;;;;0.61;100.00;102056.44;4961109;28;20435;-62
2024/01/30 07:10:12;;;;;;;12.85;4.63;;;;;;;0.63;100.00;102063.53;4968684;28;20074;-63
2024/01/30 07:12:40;;;;;;;14.13;3.50;;;;;;;0.61;100.00;102069.22;4973712;28;20416;-63
2024/01/30 07:15:08;;;;;;;12.95;4.03;;;;;;;0.58;100.00;102073.25;4975703;28;20051;-63
2024/01/30 07:17:37;;;;;;;15.45;4.80;;;;;;;0.56;100.00;102069.97;4961317;28;20078;-62
2024/01/30 07:20:05;;;;;;;15.45;4.18;;;;;;;0.55;100.00;102071.06;4978278;28;20054;-62
2024/01/30 07:22:33;;;;;;;11.15;3.83;;;;;;;0.55;100.00;102084.69;4961576;28;20054;-63
2024/01/30 07:25:01;;;;;;;15.07;3.95;;;;;;;0.53;100.00;102075.91;4967043;28;20066;-63
2024/01/30 07:27:28;;;;;;;10.93;4.38;;;;;;;0.51;100.00;102078.06;4963962;28;20051;-62
2024/01/30 07:29:56;;;;;;;10.25;3.97;;;;;;;0.49;100.00;102072.03;4958944;28;20051;-63
2024/01/30 07:32:23;;;;;;;10.70;3.42;;;;;;;0.47;100.00;102065.19;4964016;28;20051;-63
2024/01/30 07:34:51;;;;;;;18.48;3.50;;;;;;;0.46;100.00;102072.53;4975645;28;20051;-63
2024/01/30 07:37:33;;;;;;;9.70;3.45;;;;;;;0.45;100.00;102081.75;4975190;28;20047;-63
2024/01/30 07:40:02;;;;;;;10.95;3.85;;;;;;;0.45;100.00;102083.69;4987510;28;20058;-62
2024/01/30 07:42:30;;;;;;;15.30;3.20;;;;;;;0.43;100.00;102097.53;4988915;28;20057;-63
2024/01/30 07:44:57;;;;;;;9.32;2.95;;;;;;;0.42;100.00;102098.63;4977993;28;20057;-62
2024/01/30 07:47:25;;;;;;;15.55;4.10;;;;;;;0.42;100.00;102101.34;4990829;28;20072;-63
2024/01/30 07:49:54;;;;;;;9.63;3.85;;;;;;;0.44;100.00;102109.25;4976901;28;20046;-62
2024/01/30 07:52:21;;;;;;;10.75;3.83;;;;;;;0.42;100.00;102101.34;4960352;28;20578;-62
2024/01/30 07:54:50;;;;;;;10.63;2.92;;;;;;;0.42;100.00;102116.84;4977075;28;20108;-62
2024/01/30 07:57:17;;;;;;;10.80;3.92;;;;;;;0.41;100.00;102121.47;4984547;28;20054;-61
2024/01/30 07:59:45;;;;;;;11.60;3.28;;;;;;;0.43;100.00;102116.59;4982228;28;20180;-62
2024/01/30 08:02:13;;;;;;;10.30;3.47;;;;;;;0.42;100.00;102127.75;4976584;28;20054;-62
2024/01/30 08:04:41;;;;;;;8.60;3.88;;;;;;;0.41;100.00;102124.19;4989312;28;20054;-62
2024/01/30 08:07:08;;;;;;;9.18;3.35;;;;;;;0.41;100.00;102116.03;4967782;28;20047;-61
2024/01/30 08:09:36;;;;;;;12.35;4.15;;;;;;;0.42;100.00;102123.13;4969282;28;20404;-61
2024/01/30 08:12:04;;;;;;;11.82;5.03;;;;;;;0.42;100.00;102134.03;4966563;28;20054;-61
2024/01/30 08:14:32;;;;;;;12.70;3.47;;;;;;;0.42;100.00;102138.66;4949869;28;20517;-63
2024/01/30 08:16:59;;;;;;;10.73;3.20;;;;;;;0.43;100.00;102134.84;4965437;28;20062;-62
2024/01/30 08:19:26;;;;;;;7.78;3.40;;;;;;;0.43;100.00;102138.41;4985582;28;20063;-62
2024/01/30 08:21:55;;;;;;;13.52;3.83;;;;;;;0.44;100.00;102153.69;4984586;28;20051;-62
2024/01/30 08:24:23;;;;;;;6.97;3.72;;;;;;;0.45;100.00;102155.31;4984115;28;20513;-64
2024/01/30 08:26:50;;;;;;;6.93;3.42;;;;;;;0.45;100.00;102149.88;4975040;28;20058;-62
2024/01/30 08:29:17;;;;;;;10.95;3.47;;;;;;;0.46;100.00;102162.44;4972513;28;20057;-62
2024/01/30 08:31:46;;;;;;;10.20;4.10;;;;;;;0.46;100.00;102159.69;4976054;28;20051;-61
2024/01/30 08:34:13;;;;;;;12.30;5.13;;;;;;;0.46;100.00;102167.03;4987069;28;20055;-62
2024/01/30 08:36:41;;;;;;;13.18;3.92;;;;;;;0.46;100.00;102173.31;4957358;28;20051;-61
2024/01/30 08:39:08;;;;;;;7.85;3.03;;;;;;;0.46;100.00;102173.31;4950958;28;20050;-61
2024/01/30 08:41:36;;;;;;;8.80;2.90;;;;;;;0.48;100.00;102170.34;4965216;28;20094;-62
2024/01/30 08:44:04;;;;;;;5.90;2.95;;;;;;;0.49;100.00;102182.91;4959165;28;20791;-62
2024/01/30 08:46:31;;;;;;;10.00;3.90;;;;;;;0.51;100.00;102178.03;4961765;28;20049;-62
2024/01/30 08:48:59;;;;;;;15.13;3.60;;;;;;;0.54;100.00;102181.13;4962786;28;20055;-62
2024/01/30 08:51:26;;;;;;;14.68;3.50;;;;;;;0.56;100.00;102181.69;4958909;28;20050;-62
2024/01/30 08:53:54;;;;;;;14.13;3.95;;;;;;;0.58;100.00;102179.53;4989878;28;20050;-63
2024/01/30 08:56:21;;;;;;;10.00;4.25;;;;;;;0.59;100.00;102173.03;4989274;28;20050;-63
2024/01/30 08:58:49;;;;;;;8.23;4.00;;;;;;;0.62;100.00;102182.63;4990107;28;20054;-62
2024/01/30 09:01:16;;;;;;;11.10;3.40;;;;;;;0.65;100.00;102184.03;4989466;28;20516;-62
2024/01/30 09:03:46;;;;;;;12.27;3.47;;;;;;;0.68;100.00;102183.53;4978706;28;20047;-62
2024/01/30 09:06:13;;;;;;;11.10;3.72;;;;;;;0.71;100.00;102185.78;4987698;28;20050;-62
2024/01/30 09:08:41;;;;;;;13.25;3.92;;;;;;;0.74;100.00;102197.03;4960632;28;20548;-62
2024/01/30 09:11:13;;;;;;;11.93;3.72;;;;;;;0.75;100.00;102203.28;4947869;29;20051;-62
2024/01/30 09:13:41;;;;;;;13.20;3.92;;;;;;;0.76;100.00;102200.31;4975567;28;20062;-62
2024/01/30 09:16:08;;;;;;;6.95;3.67;;;;;;;0.80;100.00;102203.38;4977654;28;20050;-62
2024/01/30 09:18:36;;;;;;;12.05;3.83;;;;;;;0.82;100.00;102204.78;4988571;28;20061;-62
2024/01/30 09:21:03;;;;;;;16.23;4.32;;;;;;;0.86;100.00;102213.31;4977011;28;20504;-62
2024/01/30 09:23:31;;;;;;;11.70;3.88;;;;;;;0.88;100.00;102222.06;4988498;28;20054;-61
2024/01/30 09:25:59;;;;;;;6.90;3.70;;;;;;;0.90;100.00;102226.19;4989019;28;20061;-62
2024/01/30 09:28:26;;;;;;;12.38;3.33;;;;;;;0.95;100.00;102236.38;4976090;28;20061;-62
2024/01/30 09:30:54;;;;;;;11.85;4.18;;;;;;;0.97;100.00;102245.16;4989244;28;20066;-63
2024/01/30 09:33:22;;;;;;;10.77;4.22;;;;;;;1.00;100.00;102239.19;4974983;28;20051;-62
2024/01/30 09:35:49;;;;;;;14.18;4.80;;;;;;;1.05;100.00;102252.94;4962780;28;20053;-62
2024/01/30 09:38:17;;;;;;;13.07;3.88;;;;;;;1.09;100.00;102244.00;4982639;28;20066;-61
2024/01/30 09:40:49;;;;;;;5.82;2.60;;;;;;;1.12;100.00;102250.88;4976610;28;20042;-60
2024/01/30 09:43:22;;;;;;;13.48;3.22;;;;;;;1.15;100.00;102253.09;4965005;28;20404;-62
2024/01/30 09:45:54;;;;;;;11.38;3.70;;;;;;;1.20;100.00;102250.47;4970509;28;20038;-61
2024/01/30 09:48:22;;;;;;;11.70;4.07;;;;;;;1.22;100.00;102240.13;4962431;28;20050;-61
2024/01/30 09:50:51;;;;;;;8.15;3.60;;;;;;;1.26;100.00;102254.94;4976297;28;20059;-61
2024/01/30 09:53:19;;;;;;;14.43;4.78;;;;;;;1.31;100.00;102256.91;4956660;28;20055;-61
2024/01/30 09:55:47;;;;;;;8.23;3.83;;;;;;;1.34;100.00;102253.69;4954522;28;20058;-62
2024/01/30 09:58:14;;;;;;;10.82;5.03;;;;;;;1.37;100.00;102261.41;4965533;28;20057;-62
2024/01/30 10:00:42;;;;;;;10.75;4.30;;;;;;;1.40;100.00;102261.75;4971796;28;20074;-62
2024/01/30 10:03:10;;;;;;;8.80;3.92;;;;;;;1.44;100.00;102257.44;4973201;28;20057;-62
2024/01/30 10:05:40;;;;;;;15.32;4.47;;;;;;;1.47;100.00;102265.13;4965743;28;20062;-62
2024/01/30 10:08:08;;;;;;;10.18;4.53;;;;;;;1.52;100.00;102269.81;4967221;28;20047;-62
2024/01/30 10:10:36;;;;;;;11.00;4.00;;;;;;;1.54;100.00;102273.97;4967497;28;20104;-62
2024/01/30 10:13:05;;;;;;;8.48;3.53;;;;;;;1.58;100.00;102274.31;4972188;28;20105;-61
2024/01/30 10:15:35;;;;;;;18.73;5.13;;;;;;;1.61;100.00;102263.72;4967317;28;20130;-62
2024/01/30 10:18:03;;;;;;;9.60;3.72;;;;;;;1.65;100.00;102267.59;4971032;28;20697;-62
2024/01/30 10:20:30;;;;;;;13.50;3.67;;;;;;;1.69;100.00;102260.59;4969070;28;20420;-62
2024/01/30 10:22:58;;;;;;;7.80;3.38;;;;;;;1.72;100.00;102265.50;4960283;28;20051;-63
2024/01/30 10:25:26;;;;;;;18.85;3.42;;;;;;;1.76;100.00;102266.69;4961339;28;20408;-62
2024/01/30 10:27:58;;;;;;;9.70;4.57;;;;;;;1.80;100.00;102267.03;4968094;28;20047;-63
2024/01/30 10:30:25;;;;;;;8.57;3.60;;;;;;;1.83;100.00;102270.06;4959375;28;20417;-63
2024/01/30 10:32:53;;;;;;;11.90;4.32;;;;;;;1.89;100.00;102270.13;4960246;28;20055;-62
2024/01/30 10:35:21;;;;;;;6.32;2.88;;;;;;;1.93;100.00;102288.53;4971276;28;20047;-63
2024/01/30 10:37:49;;;;;;;14.55;3.72;;;;;;;1.98;100.00;102285.03;4980127;28;20050;-63
2024/01/30 10:40:16;;;;;;;15.80;3.70;;;;;;;2.02;100.00;102280.72;4987226;28;20042;-62
2024/01/30 10:42:45;;;;;;;16.38;3.35;;;;;;;2.07;100.00;102280.78;4980012;28;20053;-62
2024/01/30 10:45:15;;;;;;;11.20;3.33;;;;;;;2.11;100.00;102265.56;4950874;28;20050;-64
2024/01/30 10:47:50;;;;;;;12.32;3.05;;;;;;;2.16;100.00;102268.34;4966135;28;20054;-62
2024/01/30 10:50:18;;;;;;;16.65;3.50;;;;;;;2.23;100.00;102282.66;4959402;28;20047;-61
2024/01/30 10:52:47;;;;;;;10.82;3.67;;;;;;;2.27;100.00;102284.66;4974078;28;20046;-62
2024/01/30 10:55:16;;;;;;;11.88;4.75;;;;;;;2.34;100.00;102284.44;4957745;28;20051;-63
2024/01/30 10:57:43;;;;;;;9.00;3.28;;;;;;;2.38;100.00;102289.16;4967909;28;20401;-63
2024/01/30 11:00:15;;;;;;;9.52;3.13;;;;;;;2.44;100.00;102287.31;4975250;28;20046;-63
2024/01/30 11:02:46;;;;;;;7.47;2.67;;;;;;;2.52;100.00;102297.81;4983331;28;20042;-63
2024/01/30 11:05:15;;;;;;;6.78;2.90;;;;;;;2.58;100.00;102287.75;4976676;28;20054;-61
2024/01/30 11:07:43;;;;;;;6.95;3.35;;;;;;;2.63;100.00;102307.78;4965536;28;20108;-60
2024/01/30 11:10:14;;;;;;;10.45;3.03;;;;;;;2.67;100.00;102317.16;4969535;28;20058;-60
2024/01/30 11:12:43;;;;;;;6.53;2.50;;;;;;;2.72;100.00;102311.75;4972744;28;20396;-61
2024/01/30 11:15:16;;;;;;;9.25;3.10;;;;;;;2.77;100.00;102310.97;4971507;28;20043;-62
2024/01/30 11:17:48;;;;;;;6.97;1.83;;;;;;;2.82;100.00;102313.75;4981597;28;20050;-62
2024/01/30 11:20:16;;;;;;;8.98;3.85;;;;;;;2.87;100.00;102325.59;4956456;28;20536;-62
2024/01/30 11:22:50;;;;;;;12.35;2.60;;;;;;;2.93;100.00;102318.28;4960363;28;20524;-62
2024/01/30 11:25:21;;;;;;;13.13;5.28;;;;;;;2.98;100.00;102321.91;4971250;28;20058;-62